Time;durP1;ratioP1;P1;durP2;ratioP2;P2;SDS_P1;SDS_P2;PMS_P1;PMS_P2;Temp;Humidity;BMP_temperature;BMP_pressure;BME280_temperature;BME280_humidity;BME280_pressure;Samples;Min_cycle;Max_cycle;Signal;HPM_P1;HPM_P2
2023/06/02 00:01:03;;;;;;;6.95;5.65;;;24.70;81.20;;;;;;6185932;23;20025;-79
2023/06/02 00:03:33;;;;;;;7.03;6.15;;;24.70;81.40;;;;;;6186691;23;20001;-78
2023/06/02 00:06:10;;;;;;;9.52;5.78;;;24.70;81.60;;;;;;6186343;23;20005;-78
2023/06/02 00:08:40;;;;;;;7.45;5.80;;;24.70;81.80;;;;;;6159485;23;20012;-78
2023/06/02 00:11:09;;;;;;;10.75;6.18;;;24.70;81.90;;;;;;6159926;23;20056;-78
2023/06/02 00:13:35;;;;;;;8.43;6.22;;;24.60;82.10;;;;;;6186779;23;20072;-77
2023/06/02 00:16:01;;;;;;;7.47;5.68;;;24.60;82.60;;;;;;6186348;23;20004;-79
2023/06/02 00:18:27;;;;;;;5.65;5.05;;;24.60;82.80;;;;;;6185191;23;20001;-78
2023/06/02 00:20:53;;;;;;;7.40;5.45;;;24.60;83.10;;;;;;6185497;23;20001;-78
2023/06/02 00:23:19;;;;;;;8.52;5.40;;;24.50;83.30;;;;;;6185950;23;20001;-79
2023/06/02 00:25:45;;;;;;;7.25;5.43;;;24.50;83.50;;;;;;6159482;23;20056;-78
2023/06/02 00:28:11;;;;;;;7.35;5.53;;;24.50;83.60;;;;;;6186022;23;20005;-78
2023/06/02 00:30:37;;;;;;;7.82;5.93;;;24.60;83.70;;;;;;6186231;23;19997;-78
2023/06/02 00:33:03;;;;;;;9.70;6.07;;;24.50;83.70;;;;;;6186192;23;20001;-79
2023/06/02 00:35:29;;;;;;;8.98;6.72;;;24.50;83.60;;;;;;6186106;23;20001;-78
2023/06/02 00:37:55;;;;;;;7.68;5.75;;;24.50;83.60;;;;;;6185926;23;20001;-79
2023/06/02 00:40:21;;;;;;;6.93;6.07;;;24.40;83.40;;;;;;6186021;23;20071;-78
2023/06/02 00:42:47;;;;;;;7.03;6.10;;;24.30;83.50;;;;;;6185884;23;20121;-78
2023/06/02 00:45:12;;;;;;;9.05;7.05;;;24.30;83.50;;;;;;6186014;23;20005;-79
2023/06/02 00:47:38;;;;;;;9.10;7.28;;;24.20;83.70;;;;;;6185076;23;20005;-79
2023/06/02 00:50:05;;;;;;;8.82;6.75;;;24.20;83.60;;;;;;6185607;23;20060;-79
2023/06/02 00:52:32;;;;;;;8.40;7.20;;;24.20;83.70;;;;;;6185756;23;20001;-79
2023/06/02 00:54:58;;;;;;;7.70;6.72;;;24.20;83.90;;;;;;6186031;23;20001;-79
2023/06/02 00:57:28;;;;;;;11.88;6.97;;;24.20;84.40;;;;;;6186106;23;20481;-79
2023/06/02 00:59:58;;;;;;;8.48;7.10;;;24.20;83.90;;;;;;6186040;23;20101;-79
2023/06/02 01:02:24;;;;;;;10.65;7.53;;;24.20;83.80;;;;;;6185364;23;20005;-79
2023/06/02 01:04:51;;;;;;;7.80;7.05;;;24.20;83.90;;;;;;6185641;23;20024;-79
2023/06/02 01:07:23;;;;;;;9.13;8.15;;;24.20;83.90;;;;;;6185454;23;20323;-79
2023/06/02 01:09:51;;;;;;;10.50;7.88;;;24.20;83.90;;;;;;6158725;23;20027;-79
2023/06/02 01:12:18;;;;;;;9.15;7.88;;;24.10;84.30;;;;;;6185671;23;19997;-79
2023/06/02 01:14:44;;;;;;;10.05;8.25;;;24.10;83.90;;;;;;6185294;23;20001;-79
2023/06/02 01:17:10;;;;;;;10.77;9.23;;;24.10;84.00;;;;;;6185437;23;20001;-79
2023/06/02 01:19:38;;;;;;;11.35;9.05;;;24.00;84.20;;;;;;6185001;23;20084;-79
2023/06/02 01:22:08;;;;;;;11.77;10.07;;;23.90;84.00;;;;;;6185977;23;20005;-79
2023/06/02 01:24:39;;;;;;;15.60;9.80;;;23.80;84.20;;;;;;6185864;23;20005;-79
2023/06/02 01:27:09;;;;;;;11.15;10.00;;;23.80;84.20;;;;;;6185639;23;20121;-79
2023/06/02 01:29:39;;;;;;;11.73;10.52;;;23.80;84.20;;;;;;6159114;23;20005;-79
2023/06/02 01:32:18;;;;;;;13.32;10.07;;;23.80;84.10;;;;;;6185452;23;20001;-78
2023/06/02 01:34:56;;;;;;;12.70;10.00;;;23.80;84.10;;;;;;6185572;23;20072;-79
2023/06/02 01:37:24;;;;;;;13.23;10.38;;;23.80;84.00;;;;;;6185198;23;20378;-79
2023/06/02 01:39:51;;;;;;;12.75;11.38;;;23.80;83.70;;;;;;6185720;23;20043;-79
2023/06/02 01:42:18;;;;;;;12.70;11.38;;;23.80;83.40;;;;;;6184931;23;20008;-78
2023/06/02 01:44:45;;;;;;;15.63;11.90;;;23.80;83.20;;;;;;6185205;23;20024;-78
2023/06/02 01:47:11;;;;;;;15.93;11.57;;;23.70;83.10;;;;;;6185646;23;20059;-78
2023/06/02 01:49:37;;;;;;;12.50;11.20;;;23.70;83.10;;;;;;6184674;23;19997;-79
2023/06/02 01:52:02;;;;;;;13.73;11.82;;;23.70;83.20;;;;;;6185703;23;20001;-79
2023/06/02 01:54:28;;;;;;;13.88;10.80;;;23.60;83.20;;;;;;6185505;23;20035;-79
2023/06/02 01:56:54;;;;;;;13.13;11.02;;;23.60;83.20;;;;;;6184930;23;20075;-78
2023/06/02 01:59:20;;;;;;;12.77;11.45;;;23.60;83.80;;;;;;6184079;23;20570;-79
2023/06/02 02:01:47;;;;;;;14.90;12.80;;;23.60;83.30;;;;;;6185710;23;20012;-78
2023/06/02 02:04:12;;;;;;;14.52;12.82;;;23.60;83.10;;;;;;6185706;23;20005;-78
2023/06/02 02:06:39;;;;;;;16.92;12.43;;;23.50;83.10;;;;;;6184838;23;20008;-77
2023/06/02 02:09:07;;;;;;;14.20;12.70;;;23.50;83.10;;;;;;6185161;23;20001;-78
2023/06/02 02:11:33;;;;;;;14.68;12.10;;;23.50;83.30;;;;;;6185017;23;20419;-77
2023/06/02 02:14:00;;;;;;;15.20;13.10;;;23.40;83.20;;;;;;6185103;23;19997;-78
2023/06/02 02:16:25;;;;;;;15.27;12.25;;;23.40;83.20;;;;;;6185039;23;20327;-78
2023/06/02 02:18:52;;;;;;;13.70;12.27;;;23.40;83.20;;;;;;6184545;23;19997;-79
2023/06/02 02:21:18;;;;;;;15.65;12.88;;;23.40;83.20;;;;;;6185181;23;20068;-78
2023/06/02 02:23:44;;;;;;;14.25;12.50;;;23.40;83.30;;;;;;6185626;23;20030;-79
2023/06/02 02:26:10;;;;;;;16.88;13.63;;;23.50;83.30;;;;;;6184860;23;20000;-79
2023/06/02 02:28:37;;;;;;;13.43;12.13;;;23.50;83.10;;;;;;6184736;23;20005;-80
2023/06/02 02:31:04;;;;;;;13.32;11.90;;;23.50;83.10;;;;;;6185300;23;20009;-80
2023/06/02 02:33:30;;;;;;;14.45;11.98;;;23.40;83.10;;;;;;6185129;23;20001;-79
2023/06/02 02:35:55;;;;;;;14.43;12.80;;;23.40;83.20;;;;;;6185053;23;20455;-78
2023/06/02 02:38:21;;;;;;;13.95;11.23;;;23.40;83.30;;;;;;6158754;23;20005;-78
2023/06/02 02:40:47;;;;;;;15.50;12.38;;;23.40;83.50;;;;;;6184730;23;20036;-78
2023/06/02 02:43:13;;;;;;;15.75;11.82;;;23.40;83.60;;;;;;6184958;23;20005;-77
2023/06/02 02:45:39;;;;;;;14.52;12.30;;;23.30;83.80;;;;;;6184941;23;20408;-78
2023/06/02 02:48:06;;;;;;;16.98;12.38;;;23.30;83.90;;;;;;6186226;23;20012;-78
2023/06/02 02:50:32;;;;;;;13.73;11.73;;;23.30;84.00;;;;;;6185977;23;19997;-77
2023/06/02 02:52:57;;;;;;;13.68;11.85;;;23.30;84.30;;;;;;6187146;23;20001;-78
2023/06/02 02:55:23;;;;;;;14.98;12.10;;;23.30;84.30;;;;;;6186739;23;20004;-77
2023/06/02 02:57:48;;;;;;;13.40;11.43;;;23.30;84.20;;;;;;6186274;23;20520;-78
2023/06/02 03:00:14;;;;;;;13.95;11.88;;;23.30;84.20;;;;;;6186228;23;20013;-77
2023/06/02 03:02:40;;;;;;;14.48;11.68;;;23.20;84.00;;;;;;6186969;23;20025;-78
2023/06/02 03:05:06;;;;;;;15.05;12.77;;;23.30;84.10;;;;;;6186321;23;20080;-77
2023/06/02 03:07:34;;;;;;;17.58;11.70;;;23.30;84.10;;;;;;6185975;23;20008;-78
2023/06/02 03:10:00;;;;;;;15.05;10.55;;;23.30;84.20;;;;;;6185648;23;20051;-77
2023/06/02 03:12:26;;;;;;;12.85;10.70;;;23.20;84.20;;;;;;6185855;23;20356;-78
2023/06/02 03:14:51;;;;;;;14.05;11.63;;;23.10;84.10;;;;;;6186223;23;20043;-78
2023/06/02 03:17:17;;;;;;;13.07;10.65;;;23.00;84.10;;;;;;6187000;23;20302;-79
2023/06/02 03:19:43;;;;;;;13.73;11.85;;;22.90;84.40;;;;;;6185937;23;20001;-78
2023/06/02 03:22:09;;;;;;;14.98;12.20;;;22.90;84.30;;;;;;6160007;23;20017;-79
2023/06/02 03:24:35;;;;;;;14.90;11.80;;;22.80;84.40;;;;;;6185255;23;20031;-79
2023/06/02 03:27:00;;;;;;;16.42;13.02;;;22.70;84.60;;;;;;6186182;23;20076;-78
2023/06/02 03:29:26;;;;;;;14.60;12.13;;;22.80;84.90;;;;;;6185386;23;20059;-78
2023/06/02 03:31:54;;;;;;;13.60;12.20;;;22.70;84.90;;;;;;6185687;23;20028;-80
2023/06/02 03:34:20;;;;;;;15.05;13.23;;;22.70;85.00;;;;;;6183727;23;20027;-81
2023/06/02 03:36:46;;;;;;;13.85;12.02;;;22.70;85.20;;;;;;6185363;23;20479;-86
2023/06/02 03:39:13;;;;;;;15.73;11.45;;;22.70;85.10;;;;;;6184899;23;20005;-86
2023/06/02 03:41:39;;;;;;;17.10;13.27;;;22.70;85.10;;;;;;6185397;23;20370;-85
2023/06/02 03:44:05;;;;;;;14.00;12.20;;;22.60;85.30;;;;;;6186047;23;20486;-86
2023/06/02 03:46:31;;;;;;;14.27;11.57;;;22.60;85.30;;;;;;6186211;23;19997;-85
2023/06/02 03:48:57;;;;;;;14.80;12.20;;;22.60;85.30;;;;;;6186468;23;20002;-85
2023/06/02 03:51:23;;;;;;;16.80;12.05;;;22.70;85.40;;;;;;6184807;23;20025;-85
2023/06/02 03:53:49;;;;;;;13.82;11.07;;;22.70;85.40;;;;;;6185390;23;20004;-85
2023/06/02 03:56:16;;;;;;;16.55;12.65;;;22.70;85.20;;;;;;6185092;23;20064;-85
2023/06/02 03:58:41;;;;;;;14.77;12.48;;;22.70;85.00;;;;;;6185132;23;20080;-85
2023/06/02 04:01:08;;;;;;;14.90;12.30;;;22.80;85.10;;;;;;6186022;23;20388;-86
2023/06/02 04:03:36;;;;;;;13.30;11.23;;;22.80;85.00;;;;;;6185895;23;20084;-86
2023/06/02 04:06:03;;;;;;;13.45;10.52;;;22.80;85.00;;;;;;6183814;23;20013;-85
2023/06/02 04:08:29;;;;;;;14.98;11.82;;;22.80;85.10;;;;;;6185092;23;20100;-85
2023/06/02 04:10:55;;;;;;;13.63;11.35;;;22.80;85.20;;;;;;6184992;23;20435;-86
2023/06/02 04:13:21;;;;;;;13.65;11.38;;;22.70;85.20;;;;;;6158592;23;20013;-85
2023/06/02 04:15:46;;;;;;;17.55;11.80;;;22.80;85.20;;;;;;6184951;23;19997;-85
2023/06/02 04:18:12;;;;;;;14.15;11.45;;;22.80;85.50;;;;;;6185627;23;20005;-85
2023/06/02 04:20:38;;;;;;;12.98;10.60;;;22.80;85.50;;;;;;6159613;23;20015;-85
2023/06/02 04:23:04;;;;;;;15.85;11.85;;;22.90;85.40;;;;;;6159052;23;20009;-84
2023/06/02 04:25:29;;;;;;;14.80;11.45;;;22.90;86.00;;;;;;6185437;23;20401;-84
2023/06/02 04:27:55;;;;;;;12.35;10.80;;;22.90;85.40;;;;;;6185324;23;20407;-85
2023/06/02 04:30:21;;;;;;;13.77;10.10;;;22.90;85.30;;;;;;6185417;23;20028;-85
2023/06/02 04:32:46;;;;;;;13.23;10.38;;;22.80;85.50;;;;;;6186067;23;20001;-85
2023/06/02 04:35:13;;;;;;;12.88;10.52;;;22.80;85.60;;;;;;6185877;23;20366;-86
2023/06/02 04:37:38;;;;;;;15.85;10.68;;;22.80;85.60;;;;;;6185645;23;20012;-86
2023/06/02 04:40:04;;;;;;;11.65;9.95;;;22.70;85.80;;;;;;6185143;23;20075;-85
2023/06/02 04:42:32;;;;;;;10.52;9.20;;;22.70;86.10;;;;;;6184894;23;20001;-85
2023/06/02 04:45:00;;;;;;;20.13;14.55;;;22.70;86.10;;;;;;6185974;23;20005;-85
2023/06/02 04:47:27;;;;;;;15.05;11.25;;;22.70;86.30;;;;;;6185794;23;20001;-84
2023/06/02 04:49:53;;;;;;;18.40;13.57;;;22.60;86.30;;;;;;6185132;23;19997;-84
2023/06/02 04:52:19;;;;;;;13.75;11.30;;;22.60;86.40;;;;;;6185083;23;20024;-84
2023/06/02 04:54:45;;;;;;;13.32;11.48;;;22.60;86.30;;;;;;6185199;23;20427;-85
2023/06/02 04:57:11;;;;;;;16.88;11.05;;;22.60;86.30;;;;;;6185513;23;20008;-85
2023/06/02 04:59:36;;;;;;;13.98;12.15;;;22.60;86.70;;;;;;6158188;23;20395;-85
2023/06/02 05:02:02;;;;;;;12.93;10.38;;;22.60;86.60;;;;;;6159011;23;20431;-85
2023/06/02 05:04:29;;;;;;;12.50;10.43;;;22.60;86.80;;;;;;6159278;23;20376;-85
2023/06/02 05:06:54;;;;;;;14.00;10.40;;;22.60;86.70;;;;;;6184722;23;20438;-85
2023/06/02 05:09:20;;;;;;;14.30;11.30;;;22.70;86.90;;;;;;6184050;23;20001;-86
2023/06/02 05:11:45;;;;;;;12.43;10.40;;;22.70;86.90;;;;;;6184976;23;20008;-86
2023/06/02 05:14:11;;;;;;;12.35;8.75;;;22.80;87.50;;;;;;6185338;23;20018;-85
2023/06/02 05:16:42;;;;;;;11.68;9.10;;;22.80;87.90;;;;;;6185587;23;20001;-85
2023/06/02 05:19:07;;;;;;;12.00;9.30;;;22.80;87.90;;;;;;6158655;23;20001;-85
2023/06/02 05:21:33;;;;;;;9.32;8.38;;;22.80;88.50;;;;;;6184832;23;20002;-85
2023/06/02 05:23:59;;;;;;;10.77;8.55;;;22.90;88.90;;;;;;6185277;23;19996;-85
2023/06/02 05:26:26;;;;;;;10.13;8.63;;;22.90;88.40;;;;;;6185158;23;19997;-85
2023/06/02 05:28:53;;;;;;;11.52;8.70;;;22.90;88.30;;;;;;6185592;23;20450;-87
2023/06/02 05:31:19;;;;;;;8.45;7.53;;;22.90;88.40;;;;;;6184638;23;20001;-87
2023/06/02 05:33:45;;;;;;;10.77;8.68;;;23.00;88.50;;;;;;6158018;23;20483;-80
2023/06/02 05:36:11;;;;;;;11.02;8.52;;;23.10;88.40;;;;;;6183697;23;20442;-81
2023/06/02 05:38:41;;;;;;;11.65;8.07;;;23.10;88.30;;;;;;6185066;23;20001;-82
2023/06/02 05:41:07;;;;;;;9.27;7.60;;;23.20;88.20;;;;;;6184337;23;20005;-82
2023/06/02 05:43:32;;;;;;;11.13;7.80;;;23.20;88.00;;;;;;6183959;23;20379;-79
2023/06/02 05:45:58;;;;;;;10.25;7.35;;;23.30;87.90;;;;;;6184975;23;20008;-79
2023/06/02 05:48:24;;;;;;;10.68;7.55;;;23.40;87.80;;;;;;6184570;23;20005;-79
2023/06/02 05:50:50;;;;;;;7.72;6.45;;;23.40;87.60;;;;;;6183130;23;20001;-79
2023/06/02 05:53:16;;;;;;;10.40;6.75;;;23.40;87.00;;;;;;6183180;23;20469;-78
2023/06/02 05:55:41;;;;;;;8.18;5.82;;;23.50;86.40;;;;;;6184599;23;20012;-78
2023/06/02 05:58:07;;;;;;;7.50;5.55;;;23.50;85.60;;;;;;6184755;23;20396;-78
2023/06/02 06:00:33;;;;;;;6.53;5.07;;;23.60;85.30;;;;;;6184354;23;20479;-78
2023/06/02 06:02:58;;;;;;;7.25;4.68;;;23.60;85.00;;;;;;6184612;23;20007;-79
2023/06/02 06:05:24;;;;;;;7.78;5.05;;;23.70;84.80;;;;;;6185601;23;20005;-78
2023/06/02 06:07:50;;;;;;;7.10;5.72;;;23.80;84.60;;;;;;6185426;23;20005;-79
2023/06/02 06:10:15;;;;;;;9.98;5.45;;;23.80;84.10;;;;;;6184362;23;20004;-78
2023/06/02 06:12:41;;;;;;;7.63;5.45;;;23.90;83.80;;;;;;6183969;23;20001;-80
2023/06/02 06:15:07;;;;;;;6.03;4.90;;;23.90;83.10;;;;;;6184334;23;20001;-79
2023/06/02 06:17:33;;;;;;;6.22;5.03;;;23.90;82.70;;;;;;6184143;23;20037;-79
2023/06/02 06:19:58;;;;;;;6.78;5.15;;;24.00;82.30;;;;;;6182649;23;20027;-80
2023/06/02 06:22:24;;;;;;;6.68;5.28;;;24.10;82.00;;;;;;6183562;23;20019;-80
2023/06/02 06:24:50;;;;;;;5.90;4.78;;;24.10;81.00;;;;;;6158882;23;20009;-80
2023/06/02 06:27:15;;;;;;;6.68;4.95;;;24.10;80.80;;;;;;6185000;23;20699;-79
2023/06/02 06:29:41;;;;;;;5.53;4.90;;;24.10;80.50;;;;;;6184479;23;20004;-78
2023/06/02 06:32:07;;;;;;;6.70;5.22;;;24.20;80.50;;;;;;6183890;23;20009;-78
2023/06/02 06:34:33;;;;;;;8.07;5.47;;;24.20;80.40;;;;;;6184472;23;20001;-79
2023/06/02 06:36:59;;;;;;;5.68;4.53;;;24.20;79.90;;;;;;6184441;23;20336;-79
2023/06/02 06:39:25;;;;;;;4.97;3.88;;;24.20;79.30;;;;;;6158771;23;20431;-79
2023/06/02 06:41:50;;;;;;;5.18;4.05;;;24.30;78.30;;;;;;6179330;23;20008;-79
2023/06/02 06:44:16;;;;;;;4.18;3.53;;;24.30;77.70;;;;;;6180068;23;20035;-79
2023/06/02 06:46:42;;;;;;;4.85;3.30;;;24.40;77.50;;;;;;6184087;23;20001;-79
2023/06/02 06:49:07;;;;;;;5.05;3.40;;;24.40;76.10;;;;;;6181017;23;20088;-80
2023/06/02 06:51:33;;;;;;;4.88;3.35;;;24.50;75.60;;;;;;6185051;23;19997;-80
2023/06/02 06:53:59;;;;;;;3.10;2.80;;;24.50;74.30;;;;;;6184852;23;20027;-80
2023/06/02 06:56:25;;;;;;;4.30;2.70;;;24.60;73.80;;;;;;6185036;23;20004;-81
2023/06/02 06:58:52;;;;;;;3.60;2.53;;;24.60;72.80;;;;;;6184743;23;20005;-81
2023/06/02 07:01:17;;;;;;;6.70;3.10;;;24.60;72.90;;;;;;6158240;23;20092;-80
2023/06/02 07:03:43;;;;;;;3.78;2.83;;;24.70;72.00;;;;;;6185603;23;20036;-80
2023/06/02 07:06:09;;;;;;;3.72;2.95;;;24.70;72.20;;;;;;6185491;23;20024;-80
2023/06/02 07:08:37;;;;;;;4.97;3.30;;;24.80;72.20;;;;;;6184914;23;20009;-80
2023/06/02 07:11:03;;;;;;;5.32;2.70;;;24.80;72.20;;;;;;6158839;23;20431;-80
2023/06/02 07:13:29;;;;;;;3.33;2.80;;;24.90;72.10;;;;;;6184964;23;20008;-79
2023/06/02 07:15:55;;;;;;;3.40;3.10;;;25.00;71.90;;;;;;6182620;23;20331;-79
2023/06/02 07:18:21;;;;;;;5.18;3.60;;;25.00;71.60;;;;;;6184665;23;20088;-79
2023/06/02 07:20:46;;;;;;;4.85;2.80;;;25.10;71.60;;;;;;6184588;23;20011;-80
2023/06/02 07:23:12;;;;;;;2.97;2.70;;;25.20;71.10;;;;;;6184600;23;20001;-79
2023/06/02 07:25:38;;;;;;;3.08;2.50;;;25.20;70.60;;;;;;6158633;23;20109;-79
2023/06/02 07:28:04;;;;;;;4.55;2.38;;;25.30;70.20;;;;;;6184562;23;20058;-79
2023/06/02 07:30:31;;;;;;;2.88;2.38;;;25.40;70.40;;;;;;6184300;23;20072;-80
2023/06/02 07:32:57;;;;;;;2.67;2.42;;;25.40;69.10;;;;;;6185219;23;20080;-79
2023/06/02 07:35:24;;;;;;;6.43;3.58;;;25.40;68.10;;;;;;6160263;23;20036;-79
2023/06/02 07:37:53;;;;;;;4.43;2.90;;;25.50;69.00;;;;;;6186948;23;20055;-79
2023/06/02 07:40:19;;;;;;;3.40;3.08;;;25.60;69.50;;;;;;6186959;23;20028;-79
2023/06/02 07:42:45;;;;;;;2.90;2.60;;;25.60;68.90;;;;;;6185945;23;20033;-79
2023/06/02 07:45:11;;;;;;;3.33;2.80;;;25.70;69.40;;;;;;6159758;23;20016;-79
2023/06/02 07:47:37;;;;;;;7.38;2.60;;;25.70;69.50;;;;;;6186603;23;20028;-79
2023/06/02 07:50:03;;;;;;;3.88;3.15;;;25.80;69.60;;;;;;6186594;23;20089;-79
2023/06/02 07:52:29;;;;;;;4.75;2.75;;;25.80;69.10;;;;;;6185044;23;20293;-79
2023/06/02 07:54:55;;;;;;;3.47;2.90;;;25.90;69.60;;;;;;6182982;23;20001;-79
2023/06/02 07:57:21;;;;;;;2.92;2.30;;;26.00;68.70;;;;;;6185267;23;20005;-81
2023/06/02 07:59:46;;;;;;;3.83;2.42;;;26.00;68.30;;;;;;6185373;23;20017;-79
2023/06/02 08:02:12;;;;;;;2.58;2.38;;;26.10;67.20;;;;;;6185233;23;20013;-80
2023/06/02 08:04:37;;;;;;;4.70;2.75;;;26.10;67.10;;;;;;6185535;23;20032;-77
2023/06/02 08:07:04;;;;;;;4.63;2.50;;;26.20;66.90;;;;;;6185506;23;20080;-78
2023/06/02 08:09:30;;;;;;;3.47;2.92;;;26.30;67.10;;;;;;6185326;23;20007;-78
2023/06/02 08:11:56;;;;;;;2.97;2.40;;;26.30;66.90;;;;;;6185026;23;19997;-78
2023/06/02 08:14:21;;;;;;;3.45;2.70;;;26.40;66.20;;;;;;6184854;23;19993;-79
2023/06/02 08:16:48;;;;;;;4.95;2.90;;;26.40;66.80;;;;;;6185667;23;20055;-79
2023/06/02 08:19:14;;;;;;;8.15;2.80;;;26.50;68.40;;;;;;6184425;23;20004;-79
2023/06/02 08:21:40;;;;;;;7.00;3.72;;;26.60;69.50;;;;;;6184125;23;19997;-78
2023/06/02 08:24:05;;;;;;;5.90;3.25;;;26.60;69.70;;;;;;6183537;23;20068;-79
2023/06/02 08:26:32;;;;;;;5.97;3.40;;;26.70;70.00;;;;;;6184200;23;20071;-78
2023/06/02 08:28:58;;;;;;;3.63;2.90;;;26.70;70.00;;;;;;6158658;23;20009;-81
2023/06/02 08:31:24;;;;;;;6.65;3.40;;;26.80;70.60;;;;;;6185210;23;20023;-78
2023/06/02 08:33:52;;;;;;;3.10;2.60;;;26.80;70.40;;;;;;6183321;23;19997;-79
2023/06/02 08:36:21;;;;;;;3.83;3.13;;;26.90;70.60;;;;;;6185902;23;20001;-78
2023/06/02 08:38:51;;;;;;;3.60;3.15;;;27.00;70.90;;;;;;6188394;23;20073;-80
2023/06/02 08:41:17;;;;;;;3.75;3.05;;;27.00;70.70;;;;;;6186007;23;20001;-79
2023/06/02 08:43:44;;;;;;;5.60;2.92;;;27.10;70.70;;;;;;6186418;23;20340;-79
2023/06/02 08:46:14;;;;;;;4.40;3.13;;;27.10;70.30;;;;;;6186501;23;20001;-79
2023/06/02 08:48:44;;;;;;;4.50;2.67;;;27.20;70.20;;;;;;6185016;23;20005;-79
2023/06/02 08:51:14;;;;;;;6.15;3.45;;;27.20;70.30;;;;;;6185341;23;20021;-79
2023/06/02 08:53:40;;;;;;;3.67;2.72;;;27.30;69.80;;;;;;6184860;23;20076;-80
2023/06/02 08:56:06;;;;;;;3.22;2.88;;;27.30;69.10;;;;;;6184784;23;20021;-79
2023/06/02 08:58:33;;;;;;;4.07;2.92;;;27.40;68.70;;;;;;6183581;23;20348;-79
2023/06/02 09:00:58;;;;;;;4.95;2.97;;;27.40;68.40;;;;;;6185222;23;20020;-81
2023/06/02 09:03:27;;;;;;;3.92;3.03;;;27.50;68.30;;;;;;6188675;23;20001;-79
2023/06/02 09:05:53;;;;;;;3.55;2.95;;;27.50;67.50;;;;;;6184946;23;20009;-80
2023/06/02 09:08:20;;;;;;;4.75;2.83;;;27.60;67.00;;;;;;6158827;23;20013;-78
2023/06/02 09:10:48;;;;;;;3.20;2.60;;;27.60;67.20;;;;;;6158195;23;20436;-77
2023/06/02 09:13:32;;;;;;;5.07;3.10;;;27.70;67.80;;;;;;6183606;23;19997;-77
2023/06/02 09:16:02;;;;;;;4.43;3.35;;;27.70;67.80;;;;;;6183725;23;20005;-78
2023/06/02 09:18:30;;;;;;;5.55;3.58;;;27.80;68.00;;;;;;6182228;23;20013;-78
2023/06/02 09:20:59;;;;;;;7.88;3.50;;;27.80;68.00;;;;;;6182614;23;20039;-79
2023/06/02 09:23:42;;;;;;;9.30;4.93;;;27.80;68.50;;;;;;6184060;23;20016;-79
2023/06/02 09:26:19;;;;;;;17.27;4.53;;;27.80;69.10;;;;;;6183381;23;20024;-78
2023/06/02 09:28:45;;;;;;;4.18;3.70;;;27.80;69.30;;;;;;6158234;23;20031;-78
2023/06/02 09:31:13;;;;;;;7.20;3.72;;;27.80;68.80;;;;;;6183720;23;19997;-79
2023/06/02 09:33:39;;;;;;;23.30;4.55;;;27.90;68.60;;;;;;6158415;23;20004;-79
2023/06/02 09:36:29;;;;;;;19.58;4.50;;;27.90;68.50;;;;;;6157783;23;20008;-79
2023/06/02 09:38:56;;;;;;;31.63;6.18;;;27.90;68.80;;;;;;6158006;23;20009;-83
2023/06/02 09:41:22;;;;;;;6.50;3.70;;;28.00;68.40;;;;;;6182103;23;20005;-79
2023/06/02 09:43:49;;;;;;;6.57;3.70;;;28.00;69.00;;;;;;6157731;23;20005;-79
2023/06/02 09:46:15;;;;;;;6.25;3.75;;;28.20;69.20;;;;;;6183537;23;20024;-81
2023/06/02 09:49:01;;;;;;;6.07;3.85;;;28.30;69.90;;;;;;6183801;23;20012;-80
2023/06/02 09:51:27;;;;;;;3.50;2.95;;;28.40;70.40;;;;;;6156065;23;20088;-84
2023/06/02 09:53:54;;;;;;;5.72;3.85;;;28.50;70.00;;;;;;6184874;23;20037;-84
2023/06/02 09:56:22;;;;;;;4.00;3.35;;;28.60;70.10;;;;;;6183565;23;20012;-80
2023/06/02 09:58:48;;;;;;;4.05;3.47;;;28.70;70.20;;;;;;6184169;23;20009;-79
2023/06/02 10:01:15;;;;;;;4.57;3.85;;;28.70;70.00;;;;;;6183395;23;20013;-80
2023/06/02 10:03:44;;;;;;;6.88;4.10;;;28.80;69.80;;;;;;6184593;23;20055;-80
2023/06/02 10:06:30;;;;;;;3.47;2.87;;;28.90;67.30;;;;;;6184437;23;20438;-80
2023/06/02 10:09:21;;;;;;;3.70;3.00;;;29.00;66.90;;;;;;6183548;23;20008;-80
2023/06/02 10:12:02;;;;;;;4.90;3.70;;;29.00;65.80;;;;;;6182615;23;20004;-81
2023/06/02 10:14:51;;;;;;;4.40;3.30;;;29.20;66.00;;;;;;6157911;23;20032;-82
2023/06/02 10:17:20;;;;;;;3.42;2.97;;;29.20;65.20;;;;;;6183491;23;20009;-80
2023/06/02 10:19:54;;;;;;;4.72;3.38;;;29.30;65.00;;;;;;6183780;23;20056;-80
2023/06/02 10:22:35;;;;;;;3.42;3.13;;;29.40;64.50;;;;;;6156691;23;20376;-81
2023/06/02 10:25:10;;;;;;;4.43;3.55;;;29.50;64.50;;;;;;6184553;23;20075;-81
2023/06/02 10:27:38;;;;;;;5.40;3.88;;;29.60;64.70;;;;;;6183861;23;20009;-80
2023/06/02 10:30:04;;;;;;;4.57;3.80;;;29.70;64.70;;;;;;6184906;23;20008;-81
2023/06/02 10:32:41;;;;;;;5.80;3.63;;;29.80;63.90;;;;;;6183725;23;20025;-80
2023/06/02 10:35:07;;;;;;;4.57;3.78;;;29.80;63.60;;;;;;6157016;23;20091;-80
2023/06/02 10:37:34;;;;;;;4.70;3.25;;;29.80;63.80;;;;;;6157967;23;20487;-80
2023/06/02 10:40:00;;;;;;;7.07;3.63;;;29.90;64.00;;;;;;6158448;23;20016;-80
2023/06/02 10:42:27;;;;;;;3.58;3.00;;;29.90;64.00;;;;;;6184517;23;20008;-80
2023/06/02 10:45:26;;;;;;;27.20;3.42;;;30.00;64.10;;;;;;6185090;23;20013;-80
2023/06/02 10:47:52;;;;;;;5.35;3.53;;;30.20;63.70;;;;;;6184268;23;20005;-81
2023/06/02 10:50:21;;;;;;;9.07;3.75;;;30.30;63.20;;;;;;6184228;23;20411;-88
2023/06/02 10:53:03;;;;;;;4.68;3.22;;;30.40;62.10;;;;;;6185521;23;20020;-88
2023/06/02 10:55:31;;;;;;;4.38;2.80;;;30.50;62.10;;;;;;6158387;23;20115;-88
2023/06/02 10:57:58;;;;;;;3.75;3.45;;;30.60;62.10;;;;;;6185046;23;20075;-89
2023/06/02 11:00:35;;;;;;;3.42;3.13;;;30.70;61.20;;;;;;6184751;23;20462;-88
2023/06/02 11:03:02;;;;;;;4.00;3.38;;;30.90;60.70;;;;;;6184933;23;20005;-88
2023/06/02 11:05:29;;;;;;;3.83;3.03;;;31.00;60.70;;;;;;6185055;23;20004;-88
2023/06/02 11:08:14;;;;;;;7.38;4.28;;;31.10;61.10;;;;;;6185158;23;20012;-81
2023/06/02 11:10:49;;;;;;;4.32;3.33;;;31.30;58.80;;;;;;6186126;23;20044;-81
2023/06/02 11:13:16;;;;;;;6.95;3.50;;;31.40;59.80;;;;;;6186422;23;20001;-81
2023/06/02 11:16:06;;;;;;;3.90;2.72;;;31.50;59.10;;;;;;6187334;23;20307;-81
2023/06/02 11:18:32;;;;;;;5.25;3.30;;;31.70;57.00;;;;;;6164675;23;20059;-81
2023/06/02 11:21:00;;;;;;;3.75;3.10;;;31.80;57.90;;;;;;6183421;23;20005;-81
2023/06/02 11:23:26;;;;;;;3.45;3.03;;;31.90;57.30;;;;;;6185711;23;20004;-80
2023/06/02 11:26:01;;;;;;;6.30;3.20;;;32.10;57.50;;;;;;6186640;23;20080;-81
2023/06/02 11:28:27;;;;;;;5.38;3.05;;;32.30;56.00;;;;;;6184321;23;20005;-80
2023/06/02 11:31:15;;;;;;;4.70;3.38;;;32.50;56.00;;;;;;6185257;23;20001;-81
2023/06/02 11:33:50;;;;;;;3.97;3.03;;;32.80;55.30;;;;;;6180463;23;20001;-80
2023/06/02 11:36:28;;;;;;;3.20;2.55;;;33.20;54.80;;;;;;6184221;23;20076;-80
2023/06/02 11:39:03;;;;;;;4.97;2.75;;;33.50;53.10;;;;;;6183927;23;20005;-81
2023/06/02 11:41:29;;;;;;;5.78;3.58;;;33.90;51.50;;;;;;6157046;23;20067;-81
2023/06/02 11:44:04;;;;;;;4.25;2.92;;;34.10;51.70;;;;;;6183333;23;20388;-80
2023/06/02 11:46:30;;;;;;;5.85;3.28;;;34.40;50.40;;;;;;6157522;23;20009;-82
2023/06/02 11:48:56;;;;;;;3.08;2.63;;;34.70;49.80;;;;;;6184575;23;20375;-83
2023/06/02 11:51:22;;;;;;;4.22;3.08;;;34.90;49.80;;;;;;6185622;23;19997;-83
2023/06/02 11:53:58;;;;;;;3.20;2.90;;;35.20;49.00;;;;;;6186254;23;20400;-82
2023/06/02 11:56:25;;;;;;;3.38;2.67;;;35.40;48.40;;;;;;6182667;23;20041;-82
2023/06/02 11:58:51;;;;;;;3.97;2.88;;;35.70;48.50;;;;;;6185730;23;20097;-82
2023/06/02 12:01:19;;;;;;;3.50;2.95;;;35.90;48.10;;;;;;6184599;23;20083;-83
2023/06/02 12:04:06;;;;;;;2.92;2.58;;;36.00;45.40;;;;;;6184959;23;20009;-83
2023/06/02 12:06:33;;;;;;;4.45;2.67;;;36.00;46.80;;;;;;6185632;23;20005;-84
2023/06/02 12:09:16;;;;;;;4.07;2.83;;;36.10;46.00;;;;;;6185431;23;20005;-83
2023/06/02 12:11:45;;;;;;;5.47;2.72;;;36.20;45.10;;;;;;6185054;23;20001;-84
2023/06/02 12:14:13;;;;;;;3.85;2.65;;;36.30;45.80;;;;;;6185390;23;20004;-84
2023/06/02 12:16:40;;;;;;;3.72;2.45;;;36.40;45.20;;;;;;6185145;23;20328;-84
2023/06/02 12:19:22;;;;;;;3.97;2.90;;;36.50;45.50;;;;;;6184067;23;20076;-84
2023/06/02 12:21:51;;;;;;;4.47;3.10;;;36.70;45.00;;;;;;6185890;23;20004;-84
2023/06/02 12:24:34;;;;;;;5.70;3.10;;;36.80;44.50;;;;;;6183843;23;20033;-83
2023/06/02 12:27:00;;;;;;;2.72;2.33;;;36.90;43.90;;;;;;6185123;23;20009;-82
2023/06/02 12:29:27;;;;;;;4.63;3.15;;;37.00;44.50;;;;;;6183984;23;20001;-80
2023/06/02 12:32:07;;;;;;;3.95;3.10;;;37.00;44.40;;;;;;6158126;23;20301;-80
2023/06/02 12:34:33;;;;;;;3.45;2.83;;;37.00;43.00;;;;;;6158398;23;20012;-80
2023/06/02 12:37:00;;;;;;;3.60;2.78;;;37.00;43.10;;;;;;6184771;23;20012;-80
2023/06/02 12:39:26;;;;;;;3.50;2.55;;;37.10;42.80;;;;;;6184333;23;20001;-80
2023/06/02 12:41:52;;;;;;;2.65;2.45;;;37.10;42.90;;;;;;6185392;23;20008;-79
2023/06/02 12:44:18;;;;;;;3.30;2.38;;;37.20;43.00;;;;;;6185413;23;20008;-80